aviador You're here:

LFRB Decoded Metar

BREST in FRANCE
Report Time2018-02-22 06:00:00
UTC Time2018-02-22 06:25:57
Flight Rules vfr VFR
Wind060° at 08 kt
W.Decomp.*RWY 07: 7.9 kt HW 1 kt LCW
W.Rank060° ranks 22
Current wind is above 060° avg. (7.0)
Visibility9999 m
Phenomena:N/A
Clouds:N/A
Expected CloudBase > 800 ft AGL from Temp-Dew spread
CeilingNone
Temp01°C (ISA -13)
Dew Point-1°C (87% RH)
AAT-4.0°C
QNH1020 hPa
Density Alt-1,447 ft
Elevation338 ft
Report Wrong Elevation
Raw Report
LFRB 220600Z AUTO 06008KT CAVOK 01/M01 Q1020 NOSIG=

Extra information for LFRB:More info

Metar Taf Metar & Taf Last 4 Metars F.Rules Stats Wind Profile Meteogram Temp Stats Airport Information Weather charts Add Link Nearby VenuesMetar ALERT Operation Metar Decoded Social comments